Aérodrome :
LOGIN :

S'inscrire | Disclaimer

   EN    FR    IT 

 










Légende :    VFR   VFR Marginal   IFR   IFR Intensif   IFR Très Intensif
Visi : 
Plafond : 
>= 8 km
>= 3000ft
5 à 8 km
1000 à 3000 ft
1500m à 5 km
500 à 1000 ft
800 à 1500m
200 à 500 ft
< 800m
< 200 ft
Symboles :   Orages  Brouillard  Fortes neiges  Fortes précipitations  Vent > 20 kt
SIGMETs :   Divers  Orages  Givrage  Turbulence  Onde Orograph.  Cendres Volcan.






- Altitude de l'aérodrome : 53 ft
- Code IATA : HAM


EDDH - Hamburg

DERNIER METAR :
  • 240150Z 22006KT 1800 BCFG BR OVC001 01/00 Q1024 TEMPO BKN002

METARs EXPIRÉS :
  • 240120Z 25004KT 1500 BCFG BR OVC001 01/01 Q1024 TEMPO 0700 FG
  • 240050Z 23005KT 0750 0600SW R23/1200N R15/0900N FG OVC001 01/01 Q1025 NOSIG
  • 240020Z 24003KT 220V300 0750 0500NW R23/1500U R15/0900N FG OVC001 01/01 Q1025 NOSIG
  • 232350Z 26003KT 230V300 1100 0700NW R23/1900N R15/1200N BCFG OVC001 01/01 Q1025 TEMPO 0700 FG
  • 232320Z 27004KT 4900 2200NW BCFG BR FEW002 BKN003 02/01 Q1026 TEMPO 5000

TAF COR TAF EDDH
Valide du 24 à 00h jusqu'au 25 à 06h UTC


232347Z 2400/2506 23007KT 1200 BR BKN002
TEMPO 2400/2408 0500 FG OVC001
PROB30
TEMPO 2400/2409 3000
BECMG 2409/2412 6000 BKN010
TEMPO 2412/2424 BKN009
TEMPO 2418/2506 3500 -DZRA
PROB30
TEMPO 2422/2506 BKN004
BECMG 2500/2503 BKN008



MET'MAP, la Météo Aéronautique d'un coup d'oeil ! - Copyright ORBIFLY Décembre 2007 - Disclaimer

ORBIFLY MET'MAP TEAM :

Programmation & Développement : Alexandra Zaïnal
Sur une idée originale de : Baudouin d'Aumeries
Assistance à la programmation : Marc-Olivier Méhu
Soutien technique & logistique : Manuel Goepfert

Contact : metmap@orbifly.com




SOURCES & CREDITS :

   NOAA